createdAt,value
2022-08-14T00:02:03.683Z,5.50
2022-08-14T00:04:35.579Z,5.60
2022-08-14T00:07:11.713Z,2.90
2022-08-14T00:09:55.485Z,2.60
2022-08-14T00:12:48.189Z,4.43
2022-08-14T00:15:17.990Z,3.45
2022-08-14T00:17:52.862Z,3.10
2022-08-14T00:20:30.853Z,4.00
2022-08-14T00:23:08.338Z,4.55
2022-08-14T00:25:43.183Z,3.53
2022-08-14T00:28:29.234Z,3.25
2022-08-14T00:31:00.221Z,3.08
2022-08-14T00:33:52.247Z,4.60
2022-08-14T00:36:35.363Z,7.13
2022-08-14T00:39:06.501Z,4.53
2022-08-14T00:41:39.013Z,4.10
2022-08-14T00:44:08.365Z,2.95
2022-08-14T00:46:38.552Z,3.58
2022-08-14T00:49:06.354Z,4.25
2022-08-14T00:51:38.180Z,2.72
2022-08-14T00:54:16.994Z,4.07
2022-08-14T00:56:55.162Z,3.40
2022-08-14T00:59:29.817Z,4.15
2022-08-14T01:02:00.377Z,6.00
2022-08-14T01:04:51.350Z,5.07
2022-08-14T01:07:20.848Z,3.20
2022-08-14T01:09:54.478Z,3.88
2022-08-14T01:12:27.379Z,4.82
2022-08-14T01:14:59.462Z,4.40
2022-08-14T01:17:49.738Z,3.13
2022-08-14T01:20:39.847Z,3.67
2022-08-14T01:23:15.573Z,3.58
2022-08-14T01:25:45.957Z,3.60
2022-08-14T01:28:46.562Z,5.38
2022-08-14T01:31:01.661Z,3.80
2022-08-14T01:33:30.466Z,6.40
2022-08-14T01:36:22.803Z,5.43
2022-08-14T01:38:55.868Z,5.30
2022-08-14T01:41:29.786Z,5.70
2022-08-14T01:44:04.492Z,3.55
2022-08-14T01:46:38.001Z,5.85
2022-08-14T01:49:08.620Z,4.93
2022-08-14T01:51:37.372Z,4.10
2022-08-14T01:54:14.330Z,4.65
2022-08-14T01:56:44.479Z,6.65
2022-08-14T01:59:18.334Z,5.55
2022-08-14T02:01:58.932Z,4.97
2022-08-14T02:04:55.095Z,6.03
2022-08-14T02:07:44.823Z,9.85
2022-08-14T02:10:13.078Z,6.13
2022-08-14T02:12:53.982Z,4.88
2022-08-14T02:15:21.949Z,4.93
2022-08-14T02:17:50.744Z,6.57
2022-08-14T02:20:20.070Z,4.63
2022-08-14T02:22:54.599Z,4.55
2022-08-14T02:25:23.316Z,4.45
2022-08-14T02:28:24.454Z,6.72
2022-08-14T02:30:44.705Z,4.75
2022-08-14T02:33:12.765Z,5.40
2022-08-14T02:35:43.368Z,5.95
2022-08-14T02:38:11.482Z,6.80
2022-08-14T02:40:39.319Z,4.28
2022-08-14T02:43:08.770Z,8.23
2022-08-14T02:45:44.639Z,6.57
2022-08-14T02:49:01.079Z,5.25
2022-08-14T02:51:09.180Z,6.40
2022-08-14T02:53:39.842Z,6.05
2022-08-14T02:56:30.563Z,4.75
2022-08-14T02:59:05.717Z,6.03
2022-08-14T03:01:50.608Z,5.00
2022-08-14T03:04:23.647Z,6.80
2022-08-14T03:07:06.705Z,5.65
2022-08-14T03:10:24.294Z,6.20
2022-08-14T03:12:31.416Z,5.00
2022-08-14T03:15:13.980Z,9.00
2022-08-14T03:17:57.653Z,9.70
2022-08-14T03:20:29.450Z,6.82
2022-08-14T03:23:00.066Z,5.70
2022-08-14T03:25:30.966Z,6.75
2022-08-14T03:28:02.648Z,8.00
2022-08-14T03:30:39.029Z,7.75
2022-08-14T03:33:10.661Z,7.15
2022-08-14T03:36:00.261Z,8.35
2022-08-14T03:39:13.789Z,6.72
2022-08-14T03:41:19.727Z,6.20
2022-08-14T03:44:01.114Z,5.68
2022-08-14T03:46:51.841Z,5.97
2022-08-14T03:49:29.328Z,6.53
2022-08-14T03:52:00.787Z,6.72
2022-08-14T03:54:29.339Z,6.70
2022-08-14T03:57:02.469Z,9.85
2022-08-14T03:59:35.239Z,9.15
2022-08-14T04:02:04.597Z,9.05
2022-08-14T04:04:38.132Z,8.45
2022-08-14T04:07:06.725Z,7.65
2022-08-14T04:09:34.157Z,6.85
2022-08-14T04:12:03.025Z,7.30
2022-08-14T04:14:37.331Z,10.32
2022-08-14T04:17:05.785Z,7.53
2022-08-14T04:19:39.096Z,8.85
2022-08-14T04:22:06.349Z,8.27
2022-08-14T04:24:38.511Z,9.68
2022-08-14T04:27:09.597Z,6.88
2022-08-14T04:29:42.602Z,8.93
2022-08-14T04:33:00.980Z,12.88
2022-08-14T04:35:07.304Z,7.70
2022-08-14T04:37:56.428Z,8.05
2022-08-14T04:40:42.669Z,9.07
2022-08-14T04:43:32.529Z,8.02
2022-08-14T04:46:09.926Z,11.40
2022-08-14T04:48:43.741Z,8.27
2022-08-14T04:51:21.161Z,9.77
2022-08-14T04:53:51.096Z,9.23
2022-08-14T04:56:34.360Z,12.20
2022-08-14T04:59:10.452Z,9.63
2022-08-14T05:01:44.901Z,10.35
2022-08-14T05:04:20.157Z,9.27
2022-08-14T05:06:49.592Z,13.90
2022-08-14T05:09:21.673Z,9.13
2022-08-14T05:11:49.897Z,10.63
2022-08-14T05:14:46.906Z,11.85
2022-08-14T05:17:12.160Z,8.05
2022-08-14T05:19:44.723Z,9.35
2022-08-14T05:22:27.493Z,11.90
2022-08-14T05:24:54.759Z,10.40
2022-08-14T05:27:23.950Z,9.88
2022-08-14T05:29:55.226Z,9.98
2022-08-14T05:32:26.993Z,12.48
2022-08-14T05:35:00.821Z,9.07
2022-08-14T05:37:29.967Z,9.55
2022-08-14T05:39:59.553Z,13.07
2022-08-14T05:42:32.151Z,13.73
2022-08-14T05:45:04.132Z,13.07
2022-08-14T05:47:39.030Z,12.50
2022-08-14T05:50:17.595Z,12.85
2022-08-14T05:52:47.531Z,10.88
2022-08-14T05:55:14.988Z,13.07
2022-08-14T05:58:02.403Z,15.50
2022-08-14T06:00:38.574Z,16.90
2022-08-14T06:03:09.543Z,12.23
2022-08-14T06:05:38.875Z,13.80
2022-08-14T06:08:36.701Z,11.73
2022-08-14T06:11:06.565Z,13.68
2022-08-14T06:13:41.095Z,12.25
2022-08-14T06:16:18.924Z,14.07
2022-08-14T06:18:48.702Z,12.57
2022-08-14T06:21:22.590Z,15.20
2022-08-14T06:23:50.525Z,15.32
2022-08-14T06:26:20.889Z,13.38
2022-08-14T06:28:52.328Z,14.10
2022-08-14T06:31:22.702Z,11.65
2022-08-14T06:35:02.364Z,12.13
2022-08-14T06:36:39.373Z,12.20
2022-08-14T06:39:10.526Z,11.13
2022-08-14T06:41:58.091Z,11.73
2022-08-14T06:44:33.038Z,11.48
2022-08-14T06:47:03.067Z,11.23
2022-08-14T06:49:40.102Z,12.30
2022-08-14T06:52:15.086Z,10.77
2022-08-14T06:54:43.192Z,11.43
2022-08-14T06:57:14.319Z,11.98
2022-08-14T06:59:42.372Z,12.13
2022-08-14T07:02:29.287Z,10.90
2022-08-14T07:05:20.834Z,12.73
2022-08-14T07:07:51.523Z,12.13
2022-08-14T07:10:20.449Z,11.55
2022-08-14T07:13:00.839Z,25.20
2022-08-14T07:15:30.011Z,10.18
2022-08-14T07:18:00.664Z,11.40
2022-08-14T07:20:30.975Z,11.20
2022-08-14T07:23:10.826Z,11.02
2022-08-14T07:25:47.697Z,10.23
2022-08-14T07:28:20.641Z,9.80
2022-08-14T07:30:50.724Z,10.48
2022-08-14T07:33:24.585Z,10.00
2022-08-14T07:35:59.506Z,9.68
2022-08-14T07:38:33.991Z,9.82
2022-08-14T07:41:11.888Z,9.00
2022-08-14T07:43:44.169Z,8.73
2022-08-14T07:46:28.504Z,8.50
2022-08-14T07:48:57.151Z,7.25
2022-08-14T07:51:24.570Z,10.27
2022-08-14T07:53:56.794Z,8.07
2022-08-14T07:56:46.856Z,8.23
2022-08-14T07:59:12.826Z,10.10
2022-08-14T08:01:48.394Z,9.07
2022-08-14T08:04:25.057Z,10.57
2022-08-14T08:06:53.567Z,11.57
2022-08-14T08:09:29.840Z,9.30
2022-08-14T08:12:04.942Z,8.48
2022-08-14T08:14:55.773Z,10.50
2022-08-14T08:17:24.068Z,7.53
2022-08-14T08:19:51.942Z,8.60
2022-08-14T08:22:21.433Z,8.88
2022-08-14T08:24:52.955Z,8.23
2022-08-14T08:27:21.638Z,7.05
2022-08-14T08:29:51.132Z,9.05
2022-08-14T08:32:19.020Z,8.48
2022-08-14T08:34:48.584Z,6.78
2022-08-14T08:37:16.935Z,22.10
2022-08-14T08:40:02.314Z,8.73
2022-08-14T08:42:41.217Z,5.95
2022-08-14T08:45:17.387Z,8.40
2022-08-14T08:47:46.466Z,4.88
2022-08-14T08:50:31.865Z,5.18
2022-08-14T08:53:02.046Z,5.07
2022-08-14T08:55:38.794Z,5.30
2022-08-14T08:58:12.781Z,5.82
2022-08-14T09:00:48.799Z,7.20
2022-08-14T09:03:20.853Z,6.60
2022-08-14T09:06:04.120Z,5.43
2022-08-14T09:08:51.297Z,5.82
2022-08-14T09:11:21.208Z,4.32
2022-08-14T09:13:51.523Z,5.65
2022-08-14T09:16:24.925Z,7.75
2022-08-14T09:18:53.239Z,7.35
2022-08-14T09:21:24.326Z,5.97
2022-08-14T09:24:28.745Z,3.90
2022-08-14T09:26:49.514Z,6.07
2022-08-14T09:29:19.852Z,5.90
2022-08-14T09:32:00.887Z,4.68
2022-08-14T09:34:58.853Z,5.50
2022-08-14T09:37:26.812Z,6.63
2022-08-14T09:40:16.707Z,4.63
2022-08-14T09:43:36.468Z,5.10
2022-08-14T09:46:08.094Z,4.90
2022-08-14T09:48:38.003Z,4.93
2022-08-14T09:54:19.035Z,4.25
2022-08-14T09:56:31.896Z,6.20
2022-08-14T09:59:16.095Z,4.00
2022-08-14T10:01:45.962Z,4.70
2022-08-14T10:04:33.003Z,5.32
2022-08-14T10:07:03.913Z,3.97
2022-08-14T10:09:33.645Z,4.15
2022-08-14T10:12:18.694Z,7.13
2022-08-14T10:14:53.382Z,4.60
2022-08-14T10:17:33.026Z,4.85
2022-08-14T10:20:06.566Z,3.75
2022-08-14T10:23:13.182Z,3.45
2022-08-14T10:25:47.941Z,4.65
2022-08-14T10:28:51.402Z,8.57
2022-08-14T10:31:04.104Z,3.58
2022-08-14T10:33:33.313Z,4.45
2022-08-14T10:36:02.813Z,3.08
2022-08-14T10:38:34.032Z,4.78
2022-08-14T10:41:15.845Z,4.65
2022-08-14T10:43:45.797Z,3.28
2022-08-14T10:47:36.757Z,4.38
2022-08-14T10:49:09.703Z,2.28
2022-08-14T10:51:39.755Z,3.42
2022-08-14T10:54:35.070Z,3.53
2022-08-14T10:57:11.940Z,3.15
2022-08-14T10:59:45.845Z,4.18
2022-08-14T11:05:13.427Z,3.20
2022-08-14T11:08:02.470Z,3.40
2022-08-14T11:10:46.588Z,4.18
2022-08-14T11:13:27.464Z,3.15
2022-08-14T11:16:01.353Z,4.97
2022-08-14T11:18:36.272Z,2.90
2022-08-14T11:21:09.569Z,1.90
2022-08-14T11:23:43.964Z,2.22
2022-08-14T11:26:14.166Z,2.10
2022-08-14T11:28:48.704Z,3.05
2022-08-14T11:31:23.685Z,4.93
2022-08-14T11:33:55.474Z,3.72
2022-08-14T11:36:57.326Z,2.55
2022-08-14T11:39:20.146Z,2.47
2022-08-14T11:42:55.504Z,2.47
2022-08-14T11:45:00.177Z,3.38
2022-08-14T11:47:35.307Z,4.75
2022-08-14T11:50:33.499Z,2.15
2022-08-14T11:53:04.378Z,3.55
2022-08-14T11:55:38.003Z,3.38
2022-08-14T11:58:11.827Z,2.92
2022-08-14T12:00:52.644Z,2.10
2022-08-14T12:03:37.528Z,3.92
2022-08-14T12:06:21.583Z,2.90
2022-08-14T12:08:59.876Z,2.50
2022-08-14T12:11:43.021Z,4.45
2022-08-14T12:14:30.479Z,4.35
2022-08-14T12:17:12.799Z,3.22
2022-08-14T12:19:54.230Z,2.42
2022-08-14T12:22:44.689Z,2.60
2022-08-14T12:25:14.555Z,3.10
2022-08-14T12:27:53.876Z,3.65
2022-08-14T12:30:40.073Z,3.13
2022-08-14T12:33:30.981Z,4.75
2022-08-14T12:36:08.252Z,4.82
2022-08-14T12:38:45.703Z,3.35
2022-08-14T12:41:27.899Z,2.65
2022-08-14T12:44:01.982Z,4.50
2022-08-14T12:46:35.777Z,4.88
2022-08-14T12:49:15.959Z,5.57
2022-08-14T12:51:44.964Z,3.60
2022-08-14T12:54:28.140Z,4.68
2022-08-14T12:57:17.008Z,3.85
2022-08-14T12:59:49.608Z,4.60
2022-08-14T13:02:26.474Z,4.57
2022-08-14T13:04:58.553Z,3.90
2022-08-14T13:07:32.547Z,4.95
2022-08-14T13:10:45.840Z,4.45
2022-08-14T13:15:45.619Z,3.47
2022-08-14T13:18:15.569Z,4.35
2022-08-14T13:20:49.355Z,5.22
2022-08-14T13:23:30.627Z,3.67
2022-08-14T13:25:59.994Z,3.90
2022-08-14T13:28:30.315Z,3.90
2022-08-14T13:33:40.618Z,4.80
2022-08-14T13:36:09.766Z,5.38
2022-08-14T13:38:38.115Z,4.05
2022-08-14T13:41:07.358Z,3.28
2022-08-14T13:43:59.825Z,4.95
2022-08-14T13:46:27.922Z,2.58
2022-08-14T13:48:56.540Z,4.28
2022-08-14T13:51:34.327Z,4.80
2022-08-14T13:54:11.674Z,2.60
2022-08-14T13:56:41.927Z,2.50
2022-08-14T13:59:10.154Z,4.45
2022-08-14T14:01:43.007Z,3.33
2022-08-14T14:04:19.905Z,3.95
2022-08-14T14:06:51.107Z,2.10
2022-08-14T14:09:37.510Z,4.30
2022-08-14T14:12:37.637Z,2.78
2022-08-14T14:15:10.365Z,2.83
2022-08-14T14:17:39.647Z,4.10
2022-08-14T14:20:15.230Z,4.47
2022-08-14T14:23:03.461Z,2.47
2022-08-14T14:25:46.148Z,5.20
2022-08-14T14:28:24.570Z,4.80
2022-08-14T14:30:57.259Z,5.70
2022-08-14T14:36:20.813Z,2.70
2022-08-14T14:38:57.774Z,2.10
2022-08-14T14:41:38.176Z,3.75
2022-08-14T14:44:15.629Z,3.42
2022-08-14T14:46:50.250Z,4.22
2022-08-14T14:49:31.929Z,2.83
2022-08-14T14:52:15.267Z,3.55
2022-08-14T14:54:51.302Z,3.92
2022-08-14T14:57:19.526Z,3.10
2022-08-14T14:59:47.715Z,2.22
2022-08-14T15:02:37.117Z,2.38
2022-08-14T15:05:06.130Z,2.65
2022-08-14T15:07:35.452Z,5.30
2022-08-14T15:10:05.069Z,3.42
2022-08-14T15:12:55.435Z,4.15
2022-08-14T15:15:21.537Z,4.03
2022-08-14T15:17:50.102Z,2.97
2022-08-14T15:20:30.698Z,3.85
2022-08-14T15:23:08.229Z,2.90
2022-08-14T15:25:52.413Z,3.22
2022-08-14T15:28:23.169Z,4.03
2022-08-14T15:30:58.029Z,4.38
2022-08-14T15:34:43.445Z,2.30
2022-08-14T15:36:54.050Z,6.43
2022-08-14T15:39:21.674Z,2.25
2022-08-14T15:41:50.542Z,3.55
2022-08-14T15:44:24.727Z,3.35
2022-08-14T15:46:55.129Z,2.35
2022-08-14T15:49:24.358Z,1.83
2022-08-14T15:51:59.397Z,3.22
2022-08-14T15:54:31.533Z,4.13
2022-08-14T15:57:02.608Z,4.35
2022-08-14T15:59:50.351Z,2.85
2022-08-14T16:02:24.596Z,2.53
2022-08-14T16:04:59.105Z,6.45
2022-08-14T16:07:27.144Z,3.72
2022-08-14T16:10:27.928Z,3.97
2022-08-14T16:12:47.535Z,2.40
2022-08-14T16:15:16.965Z,2.50
2022-08-14T16:17:46.226Z,2.28
2022-08-14T16:20:41.388Z,2.70
2022-08-14T16:23:10.585Z,3.25
2022-08-14T16:25:42.425Z,2.92
2022-08-14T16:28:10.407Z,4.63
2022-08-14T16:30:55.990Z,6.07
2022-08-14T16:33:56.415Z,6.07
2022-08-14T16:36:31.204Z,5.03
2022-08-14T16:39:02.254Z,3.58
2022-08-14T16:41:30.166Z,2.00
2022-08-14T16:44:21.476Z,3.55
2022-08-14T16:46:58.188Z,2.30
2022-08-14T16:50:02.720Z,6.22
2022-08-14T16:52:26.346Z,2.20
2022-08-14T16:55:09.315Z,2.80
2022-08-14T16:57:50.467Z,3.53
2022-08-14T17:00:28.933Z,4.55
2022-08-14T17:03:04.869Z,3.83
2022-08-14T17:05:43.238Z,5.15
2022-08-14T17:08:32.281Z,4.15
2022-08-14T17:11:10.655Z,3.88
2022-08-14T17:13:58.370Z,3.65
2022-08-14T17:16:37.090Z,3.33
2022-08-14T17:19:13.398Z,3.58
2022-08-14T17:21:46.981Z,5.68
2022-08-14T17:24:57.756Z,5.68
2022-08-14T17:27:06.131Z,5.95
2022-08-14T17:29:44.987Z,3.42
2022-08-14T17:32:55.728Z,4.07
2022-08-14T17:35:26.759Z,4.60
2022-08-14T17:38:38.772Z,4.68
2022-08-14T17:41:27.116Z,6.38
2022-08-14T17:44:12.243Z,3.80
2022-08-14T17:46:55.288Z,5.53
2022-08-14T17:49:36.890Z,4.03
2022-08-14T17:52:34.838Z,4.70
2022-08-14T17:56:00.581Z,5.05
2022-08-14T18:00:28.670Z,5.88
2022-08-14T18:02:58.545Z,5.60
2022-08-14T18:06:08.968Z,6.25
2022-08-14T18:08:34.119Z,5.55
2022-08-14T18:11:05.398Z,5.63
2022-08-14T18:13:50.699Z,4.95
2022-08-14T18:16:22.391Z,6.78
2022-08-14T18:18:51.496Z,4.68
2022-08-14T18:21:41.536Z,6.28
2022-08-14T18:24:20.390Z,4.90
2022-08-14T18:27:09.457Z,4.43
2022-08-14T18:29:54.638Z,7.47
2022-08-14T18:32:35.692Z,5.20
2022-08-14T18:35:11.303Z,4.40
2022-08-14T18:37:56.012Z,4.90
2022-08-14T18:40:34.374Z,4.70
2022-08-14T18:43:03.698Z,4.57
2022-08-14T18:45:41.589Z,6.75
2022-08-14T18:48:14.405Z,4.80
2022-08-14T18:51:07.531Z,5.40
2022-08-14T18:53:55.832Z,5.00
2022-08-14T18:56:59.240Z,6.65
2022-08-14T18:59:53.514Z,5.63
2022-08-14T19:02:32.740Z,7.43
2022-08-14T19:05:02.469Z,5.40
2022-08-14T19:07:34.125Z,7.03
2022-08-14T19:10:01.712Z,5.90
2022-08-14T19:13:00.705Z,5.55
2022-08-14T19:15:34.513Z,5.80
2022-08-14T19:18:26.493Z,5.63
2022-08-14T19:21:13.490Z,12.15
2022-08-14T19:23:44.132Z,13.15
2022-08-14T19:26:36.773Z,7.97
2022-08-14T19:29:23.941Z,5.47
2022-08-14T19:31:55.686Z,5.65
2022-08-14T19:34:37.445Z,5.65
2022-08-14T19:37:09.905Z,7.78
2022-08-14T19:39:53.857Z,5.65
2022-08-14T19:42:28.045Z,8.13
2022-08-14T19:44:58.369Z,8.95
2022-08-14T19:47:49.819Z,5.32
2022-08-14T19:50:40.690Z,6.35
2022-08-14T19:53:16.410Z,5.68
2022-08-14T19:56:00.816Z,6.03
2022-08-14T19:58:54.413Z,7.80
2022-08-14T20:01:37.116Z,6.20
2022-08-14T20:04:07.797Z,5.50
2022-08-14T20:06:46.403Z,7.18
2022-08-14T20:11:08.346Z,7.15
2022-08-14T20:12:05.211Z,6.18
2022-08-14T20:14:51.779Z,6.70
2022-08-14T20:17:20.660Z,10.13
2022-08-14T20:19:49.932Z,7.30
2022-08-14T20:22:38.727Z,6.72
2022-08-14T20:25:15.253Z,8.60
2022-08-14T20:27:44.521Z,9.75
2022-08-14T20:30:33.683Z,8.90
2022-08-14T20:33:07.495Z,7.80
2022-08-14T20:35:43.344Z,6.97
2022-08-14T20:38:33.359Z,7.25
2022-08-14T20:41:07.585Z,6.25
2022-08-14T20:43:58.618Z,7.63
2022-08-14T20:46:38.345Z,7.25
2022-08-14T20:49:10.976Z,8.93
2022-08-14T20:51:54.674Z,8.70
2022-08-14T20:54:33.962Z,7.25
2022-08-14T20:57:09.225Z,9.30
2022-08-14T20:59:46.687Z,7.00
2022-08-14T21:02:34.230Z,9.18
2022-08-14T21:05:16.095Z,6.78
2022-08-14T21:07:51.263Z,6.60
2022-08-14T21:10:36.351Z,7.35
2022-08-14T21:14:18.670Z,6.70
2022-08-14T21:15:57.720Z,6.97
2022-08-14T21:18:29.034Z,6.90
2022-08-14T21:21:00.026Z,5.53
2022-08-14T21:23:32.508Z,6.85
2022-08-14T21:26:00.460Z,8.32
2022-08-14T21:28:30.438Z,8.48
2022-08-14T21:31:03.533Z,5.95
2022-08-14T21:33:31.106Z,8.18
2022-08-14T21:36:07.805Z,4.25
2022-08-14T21:38:38.260Z,4.65
2022-08-14T21:41:43.556Z,3.20
2022-08-14T21:44:17.041Z,7.65
2022-08-14T21:46:51.348Z,5.43
2022-08-14T21:49:24.010Z,4.95
2022-08-14T21:52:49.056Z,11.20
2022-08-14T21:54:49.551Z,5.85
2022-08-14T21:58:46.312Z,6.63
2022-08-14T22:00:34.527Z,6.68
2022-08-14T22:03:03.002Z,7.00
2022-08-14T22:05:30.732Z,7.07
2022-08-14T22:07:58.827Z,5.32
2022-08-14T22:10:26.155Z,5.45
2022-08-14T22:13:00.672Z,4.35
2022-08-14T22:15:30.248Z,4.00
2022-08-14T22:17:59.863Z,4.93
2022-08-14T22:20:28.952Z,2.72
2022-08-14T22:22:57.560Z,4.60
2022-08-14T22:25:33.256Z,6.13
2022-08-14T22:28:01.390Z,4.13
2022-08-14T22:30:28.624Z,31.73
2022-08-14T22:33:00.032Z,4.82
2022-08-14T22:35:29.200Z,5.82
2022-08-14T22:38:36.158Z,6.53
2022-08-14T22:41:04.771Z,3.40
2022-08-14T22:43:35.168Z,4.50
2022-08-14T22:46:14.373Z,6.95
2022-08-14T22:48:45.654Z,6.47
2022-08-14T22:51:17.867Z,5.05
2022-08-14T22:53:48.433Z,3.92
2022-08-14T22:56:21.404Z,4.72
2022-08-14T22:58:53.752Z,6.93
2022-08-14T23:01:56.239Z,6.80
2022-08-14T23:04:35.879Z,3.30
2022-08-14T23:07:22.549Z,3.20
2022-08-14T23:09:57.693Z,5.35
2022-08-14T23:12:54.543Z,4.60
2022-08-14T23:15:24.552Z,4.20
2022-08-14T23:17:56.373Z,3.17
2022-08-14T23:20:29.759Z,5.13
2022-08-14T23:22:57.524Z,6.73
2022-08-14T23:25:45.805Z,4.15
2022-08-14T23:28:34.676Z,5.70
2022-08-14T23:31:09.873Z,3.05
2022-08-14T23:33:45.819Z,3.75
2022-08-14T23:36:32.044Z,5.22
2022-08-14T23:39:00.428Z,5.05
2022-08-14T23:41:45.803Z,4.00
2022-08-14T23:44:14.911Z,4.05
2022-08-14T23:46:44.106Z,7.35
2022-08-14T23:49:12.658Z,6.35
2022-08-14T23:51:40.309Z,5.22
2022-08-14T23:54:48.475Z,5.13
2022-08-14T23:56:59.894Z,4.90
2022-08-14T23:59:30.465Z,5.32
